createdAt,value
2023-02-09T00:00:59.794Z,57.55
2023-02-09T00:06:37.147Z,60.57
2023-02-09T00:09:08.224Z,59.63
2023-02-09T00:11:35.394Z,60.25
2023-02-09T00:14:02.229Z,60.15
2023-02-09T00:16:29.173Z,60.62
2023-02-09T00:19:00.411Z,60.27
2023-02-09T00:21:26.989Z,59.73
2023-02-09T00:23:53.618Z,58.88
2023-02-09T00:26:21.245Z,59.78
2023-02-09T00:28:48.177Z,60.34
2023-02-09T00:31:15.419Z,58.80
2023-02-09T00:33:42.355Z,58.67
2023-02-09T00:36:10.733Z,58.60
2023-02-09T00:38:38.082Z,60.93
2023-02-09T00:44:15.862Z,60.60
2023-02-09T00:46:43.426Z,61.74
2023-02-09T00:49:10.246Z,61.55
2023-02-09T00:51:41.294Z,62.77
2023-02-09T00:54:08.198Z,61.96
2023-02-09T00:56:35.089Z,61.95
2023-02-09T00:59:01.975Z,62.64
2023-02-09T01:01:28.599Z,60.83
2023-02-09T01:03:55.620Z,59.65
2023-02-09T01:06:22.323Z,58.65
2023-02-09T01:08:49.084Z,59.68
2023-02-09T01:11:16.441Z,59.78
2023-02-09T01:13:43.126Z,58.95
2023-02-09T01:16:10.178Z,59.15
2023-02-09T01:18:36.682Z,58.82
2023-02-09T01:21:03.226Z,58.57
2023-02-09T01:23:29.859Z,60.12
2023-02-09T01:25:56.772Z,59.58
2023-02-09T01:28:23.399Z,58.72
2023-02-09T01:30:50.527Z,59.66
2023-02-09T01:33:17.261Z,60.07
2023-02-09T01:35:43.803Z,62.45
2023-02-09T01:38:10.503Z,63.17
2023-02-09T01:40:40.859Z,63.16
2023-02-09T01:43:07.640Z,63.85
2023-02-09T01:45:34.946Z,64.51
2023-02-09T01:48:01.618Z,64.96
2023-02-09T01:53:43.588Z,65.09
2023-02-09T01:56:10.551Z,65.10
2023-02-09T01:58:37.413Z,65.07
2023-02-09T02:01:04.226Z,63.84
2023-02-09T02:03:30.946Z,63.90
2023-02-09T02:05:57.603Z,63.45
2023-02-09T02:08:24.898Z,62.14
2023-02-09T02:10:52.343Z,62.32
2023-02-09T02:13:20.829Z,64.12
2023-02-09T02:15:49.406Z,62.83
2023-02-09T02:18:16.454Z,62.36
2023-02-09T02:20:45.032Z,61.84
2023-02-09T02:23:11.766Z,61.16
2023-02-09T02:25:39.419Z,61.60
2023-02-09T02:28:06.105Z,63.47
2023-02-09T02:30:34.531Z,62.97
2023-02-09T02:33:01.942Z,62.04
2023-02-09T02:35:28.489Z,63.60
2023-02-09T02:37:54.999Z,64.28
2023-02-09T02:40:21.795Z,64.47
2023-02-09T02:42:49.299Z,63.43
2023-02-09T02:45:16.292Z,63.08
2023-02-09T02:47:43.143Z,62.92
2023-02-09T02:50:10.118Z,60.62
2023-02-09T02:52:37.156Z,58.96
2023-02-09T02:55:04.146Z,58.50
2023-02-09T02:57:31.493Z,57.89
2023-02-09T02:59:58.193Z,58.12
2023-02-09T03:02:24.747Z,58.10
2023-02-09T03:04:51.706Z,57.88
2023-02-09T03:07:18.728Z,58.50
2023-02-09T03:09:45.301Z,58.32
2023-02-09T03:12:13.618Z,58.41
2023-02-09T03:14:40.270Z,57.89
2023-02-09T03:17:06.902Z,57.05
2023-02-09T03:19:33.513Z,57.41
2023-02-09T03:22:00.422Z,56.70
2023-02-09T03:24:27.614Z,57.43
2023-02-09T03:29:36.515Z,58.81
2023-02-09T03:32:03.494Z,58.18
2023-02-09T03:34:30.493Z,58.25
2023-02-09T03:36:57.229Z,60.16
2023-02-09T03:39:24.778Z,58.40
2023-02-09T03:41:51.942Z,57.95
2023-02-09T03:44:18.619Z,58.71
2023-02-09T03:46:45.677Z,58.44
2023-02-09T03:49:12.265Z,58.83
2023-02-09T03:51:38.854Z,58.21
2023-02-09T03:54:07.723Z,56.75
2023-02-09T03:56:37.735Z,57.13
2023-02-09T03:59:06.592Z,56.31
2023-02-09T04:01:33.254Z,56.89
2023-02-09T04:04:00.203Z,57.60
2023-02-09T04:06:28.677Z,57.57
2023-02-09T04:08:55.599Z,55.87
2023-02-09T04:11:23.469Z,55.38
2023-02-09T04:13:50.200Z,54.51
2023-02-09T04:16:16.806Z,54.55
2023-02-09T04:18:45.238Z,54.48
2023-02-09T04:21:13.518Z,53.62
2023-02-09T04:23:40.476Z,53.65
2023-02-09T04:28:57.527Z,53.97
2023-02-09T04:31:24.734Z,53.31
2023-02-09T04:33:52.421Z,53.58
2023-02-09T04:36:19.442Z,53.02
2023-02-09T04:38:46.207Z,52.53
2023-02-09T04:41:13.084Z,52.15
2023-02-09T04:43:40.146Z,52.50
2023-02-09T04:46:06.786Z,52.62
2023-02-09T04:48:33.663Z,52.29
2023-02-09T04:51:00.393Z,53.54
2023-02-09T04:53:29.467Z,56.02
2023-02-09T04:55:56.469Z,59.86
2023-02-09T04:58:23.405Z,57.20
2023-02-09T05:00:50.142Z,56.74
2023-02-09T05:03:16.897Z,55.19
2023-02-09T05:05:43.941Z,56.05
2023-02-09T05:08:10.887Z,55.52
2023-02-09T05:10:38.311Z,55.02
2023-02-09T05:13:05.368Z,56.61
2023-02-09T05:18:16.072Z,56.46
2023-02-09T05:20:42.619Z,56.37
2023-02-09T05:23:10.320Z,57.40
2023-02-09T05:25:37.383Z,56.32
2023-02-09T05:28:03.935Z,56.13
2023-02-09T05:30:31.793Z,56.76
2023-02-09T05:32:59.286Z,57.92
2023-02-09T05:35:26.998Z,57.09
2023-02-09T05:37:54.119Z,57.57
2023-02-09T05:40:20.901Z,57.05
2023-02-09T05:42:47.737Z,57.15
2023-02-09T05:45:16.348Z,56.35
2023-02-09T05:47:43.534Z,57.13
2023-02-09T05:50:10.559Z,56.66
2023-02-09T05:52:37.666Z,55.50
2023-02-09T05:55:04.661Z,55.00
2023-02-09T05:57:33.469Z,54.66
2023-02-09T06:00:01.190Z,54.12
2023-02-09T06:02:28.233Z,53.62
2023-02-09T06:04:55.276Z,53.41
2023-02-09T06:07:22.336Z,53.16
2023-02-09T06:09:50.005Z,52.88
2023-02-09T06:12:19.103Z,53.03
2023-02-09T06:14:46.206Z,52.39
2023-02-09T06:17:16.894Z,51.76
2023-02-09T06:19:44.080Z,52.01
2023-02-09T06:22:11.093Z,51.92
2023-02-09T06:24:40.085Z,52.24
2023-02-09T06:27:07.091Z,52.99
2023-02-09T06:29:34.017Z,52.98
2023-02-09T06:32:02.947Z,53.73
2023-02-09T06:34:31.893Z,54.08
2023-02-09T06:36:59.200Z,54.92
2023-02-09T06:39:26.119Z,53.77
2023-02-09T06:41:52.764Z,55.16
2023-02-09T06:44:19.483Z,54.03
2023-02-09T06:46:47.993Z,55.04
2023-02-09T06:49:16.533Z,55.99
2023-02-09T06:51:43.272Z,58.33
2023-02-09T06:54:10.325Z,56.83
2023-02-09T06:59:52.987Z,58.24
2023-02-09T07:02:20.364Z,56.20
2023-02-09T07:04:50.758Z,57.08
2023-02-09T07:07:17.729Z,57.19
2023-02-09T07:09:46.765Z,57.94
2023-02-09T07:12:15.274Z,57.29
2023-02-09T07:14:43.353Z,56.29
2023-02-09T07:17:12.205Z,56.66
2023-02-09T07:19:40.036Z,56.71
2023-02-09T07:22:07.062Z,55.41
2023-02-09T07:24:41.755Z,56.04
2023-02-09T07:27:12.110Z,56.75
2023-02-09T07:29:39.027Z,57.16
2023-02-09T07:32:07.798Z,58.63
2023-02-09T07:34:34.969Z,58.54
2023-02-09T07:37:04.397Z,58.62
2023-02-09T07:39:31.475Z,59.80
2023-02-09T07:41:58.945Z,57.45
2023-02-09T07:44:27.272Z,57.58
2023-02-09T07:46:54.990Z,56.95
2023-02-09T07:49:31.191Z,57.90
2023-02-09T07:55:14.164Z,59.35
2023-02-09T07:57:42.821Z,60.16
2023-02-09T08:00:10.207Z,56.67
2023-02-09T08:02:38.954Z,55.53
2023-02-09T08:05:05.839Z,54.47
2023-02-09T08:07:33.277Z,53.56
2023-02-09T08:10:00.723Z,53.23
2023-02-09T08:12:29.563Z,53.04
2023-02-09T08:14:56.462Z,53.25
2023-02-09T08:17:23.283Z,52.64
2023-02-09T08:19:50.887Z,52.15
2023-02-09T08:22:18.363Z,51.84
2023-02-09T08:24:45.172Z,51.60
2023-02-09T08:27:11.888Z,51.58
2023-02-09T08:29:38.924Z,53.98
2023-02-09T08:32:05.772Z,58.56
2023-02-09T08:34:32.550Z,57.37
2023-02-09T08:36:59.397Z,59.04
2023-02-09T08:39:26.467Z,56.49
2023-02-09T08:41:54.043Z,56.88
2023-02-09T08:44:20.941Z,57.10
2023-02-09T08:46:47.934Z,57.35
2023-02-09T08:49:15.064Z,57.61
2023-02-09T08:51:42.742Z,59.11
2023-02-09T08:54:10.004Z,56.05
2023-02-09T08:56:37.011Z,54.25
2023-02-09T08:59:04.118Z,52.34
2023-02-09T09:01:31.083Z,51.07
2023-02-09T09:03:59.017Z,50.64
2023-02-09T09:06:26.419Z,50.32
2023-02-09T09:08:53.051Z,49.89
2023-02-09T09:11:20.195Z,49.57
2023-02-09T09:13:47.189Z,49.65
2023-02-09T09:16:13.847Z,51.21
2023-02-09T09:18:41.533Z,50.60
2023-02-09T09:21:08.058Z,50.13
2023-02-09T09:23:35.361Z,50.91
2023-02-09T09:26:02.366Z,49.49
2023-02-09T09:28:29.427Z,50.33
2023-02-09T09:30:57.946Z,53.17
2023-02-09T09:33:24.952Z,50.99
2023-02-09T09:35:51.932Z,50.17
2023-02-09T09:38:18.811Z,50.12
2023-02-09T09:40:48.987Z,49.42
2023-02-09T09:43:16.034Z,49.21
2023-02-09T09:45:42.879Z,49.67
2023-02-09T09:48:13.873Z,49.54
2023-02-09T09:50:40.640Z,49.13
2023-02-09T09:53:08.149Z,49.31
2023-02-09T09:55:37.805Z,49.35
2023-02-09T09:58:06.396Z,49.47
2023-02-09T10:00:35.578Z,49.55
2023-02-09T10:03:02.469Z,48.63
2023-02-09T10:05:31.225Z,48.05
2023-02-09T10:08:05.251Z,48.14
2023-02-09T10:10:36.644Z,48.13
2023-02-09T10:13:03.392Z,48.41
2023-02-09T10:15:32.553Z,49.34
2023-02-09T10:17:59.360Z,48.47
2023-02-09T10:20:26.126Z,48.40
2023-02-09T10:22:53.855Z,47.73
2023-02-09T10:25:20.757Z,50.02
2023-02-09T10:27:48.434Z,51.03
2023-02-09T10:30:15.079Z,49.71
2023-02-09T10:32:41.772Z,49.08
2023-02-09T10:35:10.806Z,48.43
2023-02-09T10:37:37.832Z,49.34
2023-02-09T10:40:06.561Z,48.65
2023-02-09T10:42:35.494Z,49.95
2023-02-09T10:45:03.141Z,49.39
2023-02-09T10:47:31.760Z,48.20
2023-02-09T10:50:01.907Z,48.96
2023-02-09T10:52:33.021Z,48.50
2023-02-09T10:54:59.982Z,48.91
2023-02-09T10:57:27.475Z,50.18
2023-02-09T10:59:55.264Z,51.01
2023-02-09T11:02:21.946Z,49.65
2023-02-09T11:04:52.133Z,52.16
2023-02-09T11:07:19.634Z,52.60
2023-02-09T11:09:46.606Z,51.57
2023-02-09T11:12:15.581Z,48.77
2023-02-09T11:14:44.785Z,48.42
2023-02-09T11:17:12.322Z,48.38
2023-02-09T11:19:43.149Z,48.74
2023-02-09T11:22:12.434Z,48.07
2023-02-09T11:24:39.223Z,48.14
2023-02-09T11:27:06.804Z,46.93
2023-02-09T11:29:33.719Z,47.10
2023-02-09T11:32:02.829Z,47.56
2023-02-09T11:34:32.679Z,49.37
2023-02-09T11:37:01.813Z,50.89
2023-02-09T11:39:30.453Z,51.94
2023-02-09T11:42:00.336Z,49.35
2023-02-09T11:44:28.710Z,48.37
2023-02-09T11:46:55.394Z,47.63
2023-02-09T11:49:24.012Z,49.31
2023-02-09T11:51:53.529Z,49.78
2023-02-09T11:54:20.761Z,49.42
2023-02-09T11:56:48.301Z,49.85
2023-02-09T11:59:15.769Z,48.97
2023-02-09T12:01:43.362Z,49.18
2023-02-09T12:04:10.159Z,49.62
2023-02-09T12:06:37.621Z,47.38
2023-02-09T12:09:04.563Z,47.45
2023-02-09T12:11:31.713Z,46.86
2023-02-09T12:13:59.327Z,46.23
2023-02-09T12:16:26.106Z,45.88
2023-02-09T12:18:57.373Z,45.37
2023-02-09T12:21:25.856Z,47.65
2023-02-09T12:23:52.827Z,48.02
2023-02-09T12:26:21.206Z,47.71
2023-02-09T12:28:48.411Z,45.37
2023-02-09T12:31:15.558Z,45.88
2023-02-09T12:33:42.530Z,47.30
2023-02-09T12:36:13.222Z,46.77
2023-02-09T12:38:40.029Z,47.35
2023-02-09T12:41:07.291Z,47.61
2023-02-09T12:43:34.465Z,46.42
2023-02-09T12:46:08.455Z,44.43
2023-02-09T12:48:35.779Z,45.48
2023-02-09T12:54:17.937Z,44.91
2023-02-09T12:56:44.926Z,42.53
2023-02-09T12:59:11.969Z,43.71
2023-02-09T13:01:38.979Z,43.88
2023-02-09T13:04:05.906Z,43.78
2023-02-09T13:06:32.767Z,43.17
2023-02-09T13:09:02.223Z,42.71
2023-02-09T13:11:30.213Z,43.23
2023-02-09T13:13:57.264Z,42.54
2023-02-09T13:16:27.165Z,42.18
2023-02-09T13:18:56.881Z,41.29
2023-02-09T13:21:26.875Z,39.59
2023-02-09T13:23:53.774Z,40.17
2023-02-09T13:26:21.953Z,39.48
2023-02-09T13:28:49.243Z,39.04
2023-02-09T13:31:16.964Z,38.48
2023-02-09T13:33:43.823Z,39.12
2023-02-09T13:36:23.868Z,39.76
2023-02-09T13:38:51.333Z,38.26
2023-02-09T13:41:18.995Z,38.25
2023-02-09T13:43:50.056Z,38.24
2023-02-09T13:46:17.183Z,39.13
2023-02-09T13:48:44.159Z,38.93
2023-02-09T13:51:11.315Z,40.09
2023-02-09T13:53:41.141Z,39.54
2023-02-09T13:56:08.958Z,41.33
2023-02-09T13:58:39.200Z,39.91
2023-02-09T14:04:07.645Z,39.09
2023-02-09T14:06:36.252Z,39.98
2023-02-09T14:09:02.844Z,40.49
2023-02-09T14:11:42.002Z,40.30
2023-02-09T14:14:09.762Z,38.26
2023-02-09T14:19:47.017Z,38.63
2023-02-09T14:22:13.944Z,37.25
2023-02-09T14:24:41.338Z,38.37
2023-02-09T14:27:09.947Z,39.32
2023-02-09T14:29:36.471Z,38.96
2023-02-09T14:32:03.430Z,38.46
2023-02-09T14:34:30.077Z,39.54
2023-02-09T14:36:58.600Z,38.52
2023-02-09T14:39:26.914Z,38.64
2023-02-09T14:41:53.630Z,36.58
2023-02-09T14:44:20.444Z,37.83
2023-02-09T14:46:49.550Z,40.03
2023-02-09T14:49:20.135Z,38.61
2023-02-09T14:51:47.674Z,38.60
2023-02-09T14:54:14.353Z,38.07
2023-02-09T14:56:41.398Z,36.51
2023-02-09T14:59:10.186Z,35.06
2023-02-09T15:01:37.017Z,35.19
2023-02-09T15:04:03.597Z,35.28
2023-02-09T15:06:31.356Z,34.33
2023-02-09T15:08:59.162Z,33.59
2023-02-09T15:11:25.816Z,33.43
2023-02-09T15:13:52.809Z,33.28
2023-02-09T15:16:19.650Z,34.69
2023-02-09T15:18:46.754Z,33.93
2023-02-09T15:21:14.373Z,34.49
2023-02-09T15:23:41.866Z,33.32
2023-02-09T15:26:08.613Z,33.77
2023-02-09T15:28:35.983Z,33.06
2023-02-09T15:31:09.416Z,33.18
2023-02-09T15:33:37.814Z,33.24
2023-02-09T15:36:05.126Z,35.06
2023-02-09T15:38:32.117Z,34.81
2023-02-09T15:40:58.792Z,34.12
2023-02-09T15:43:27.130Z,34.48
2023-02-09T15:45:53.873Z,34.06
2023-02-09T15:48:21.411Z,34.21
2023-02-09T15:50:48.406Z,34.33
2023-02-09T15:53:15.121Z,34.84
2023-02-09T15:55:42.673Z,34.51
2023-02-09T15:58:11.711Z,34.46
2023-02-09T16:00:38.763Z,34.24
2023-02-09T16:03:05.823Z,36.02
2023-02-09T16:05:34.020Z,35.80
2023-02-09T16:08:03.871Z,35.87
2023-02-09T16:10:30.529Z,36.61
2023-02-09T16:12:57.452Z,37.33
2023-02-09T16:15:24.520Z,36.66
2023-02-09T16:17:51.348Z,36.77
2023-02-09T16:20:18.731Z,36.33
2023-02-09T16:22:46.302Z,36.49
2023-02-09T16:25:13.393Z,37.73
2023-02-09T16:27:40.919Z,37.68
2023-02-09T16:30:09.294Z,37.31
2023-02-09T16:32:36.319Z,37.31
2023-02-09T16:35:16.300Z,36.37
2023-02-09T16:37:44.700Z,35.95
2023-02-09T16:40:12.576Z,37.07
2023-02-09T16:42:40.001Z,37.70
2023-02-09T16:45:06.637Z,37.71
2023-02-09T16:47:37.321Z,37.28
2023-02-09T17:08:59.774Z,39.97
2023-02-09T17:11:27.452Z,40.39
2023-02-09T17:13:55.253Z,40.22
2023-02-09T17:18:51.638Z,40.53
2023-02-09T17:21:18.304Z,41.16
2023-02-09T17:23:45.545Z,41.64
2023-02-09T17:26:12.463Z,42.06
2023-02-09T17:28:40.886Z,43.42
2023-02-09T17:31:09.088Z,42.95
2023-02-09T17:33:36.157Z,43.38
2023-02-09T17:36:26.030Z,42.66
2023-02-09T17:38:51.773Z,41.83
2023-02-09T17:41:20.321Z,42.10
2023-02-09T17:43:47.081Z,42.89
2023-02-09T17:46:14.011Z,43.21
2023-02-09T17:48:40.820Z,42.87
2023-02-09T17:51:07.558Z,42.31
2023-02-09T17:53:34.561Z,41.87
2023-02-09T17:56:01.317Z,41.34
2023-02-09T17:58:27.937Z,41.39
2023-02-09T18:00:54.724Z,41.37
2023-02-09T18:03:23.354Z,41.67
2023-02-09T18:05:50.176Z,41.65
2023-02-09T18:08:17.121Z,40.88
2023-02-09T18:10:43.710Z,40.81
2023-02-09T18:13:12.083Z,40.74
2023-02-09T18:15:39.367Z,40.62
2023-02-09T18:18:12.210Z,40.52
2023-02-09T18:20:48.193Z,40.43
2023-02-09T18:26:21.603Z,41.06
2023-02-09T18:28:48.495Z,41.64
2023-02-09T18:31:15.760Z,41.78
2023-02-09T18:33:43.377Z,41.81
2023-02-09T18:36:10.218Z,41.93
2023-02-09T18:38:37.820Z,41.91
2023-02-09T18:41:06.547Z,42.05
2023-02-09T18:43:33.409Z,42.24
2023-02-09T18:46:03.867Z,43.03
2023-02-09T18:48:30.612Z,43.60
2023-02-09T18:50:57.433Z,43.40
2023-02-09T18:53:24.911Z,44.53
2023-02-09T18:55:51.371Z,44.13
2023-02-09T18:58:18.616Z,45.30
2023-02-09T19:00:45.635Z,47.06
2023-02-09T19:03:14.372Z,47.15
2023-02-09T19:05:41.052Z,48.33
2023-02-09T19:08:07.892Z,50.12
2023-02-09T19:10:34.931Z,48.42
2023-02-09T19:13:01.905Z,48.61
2023-02-09T19:15:28.433Z,48.46
2023-02-09T19:17:56.780Z,48.17
2023-02-09T19:20:24.752Z,46.30
2023-02-09T19:22:51.707Z,45.62
2023-02-09T19:25:19.451Z,45.22
2023-02-09T19:27:48.127Z,44.80
2023-02-09T19:33:17.945Z,43.86
2023-02-09T19:35:47.124Z,43.51
2023-02-09T19:38:14.185Z,43.25
2023-02-09T19:40:40.829Z,42.80
2023-02-09T19:43:07.507Z,42.15
2023-02-09T19:45:34.291Z,41.36
2023-02-09T19:48:01.205Z,41.63
2023-02-09T19:50:28.188Z,42.28
2023-02-09T19:52:55.042Z,43.91
2023-02-09T19:55:22.007Z,45.07
2023-02-09T19:57:48.837Z,44.40
2023-02-09T20:00:16.417Z,45.84
2023-02-09T20:02:45.556Z,45.83
2023-02-09T20:05:12.069Z,47.99
2023-02-09T20:39:02.544Z,46.82
2023-02-09T20:41:29.355Z,47.20
2023-02-09T20:43:57.017Z,47.16
2023-02-09T20:46:23.678Z,45.67
2023-02-09T20:48:52.812Z,47.90
2023-02-09T20:51:19.447Z,46.95
2023-02-09T20:53:46.350Z,47.25
2023-02-09T20:56:13.164Z,45.75
2023-02-09T20:58:39.660Z,45.18
2023-02-09T21:01:06.303Z,45.24
2023-02-09T21:03:37.603Z,45.66
2023-02-09T21:09:00.264Z,46.39
2023-02-09T21:14:43.275Z,47.34
2023-02-09T21:17:10.289Z,46.33
2023-02-09T21:19:37.424Z,45.85
2023-02-09T21:22:04.019Z,48.11
2023-02-09T21:24:30.520Z,48.59
2023-02-09T21:26:58.177Z,46.26
2023-02-09T21:38:43.644Z,45.59
2023-02-09T21:41:10.785Z,46.99
2023-02-09T22:02:12.645Z,44.16
2023-02-09T22:04:42.000Z,44.80
2023-02-09T22:19:21.532Z,44.33
2023-02-09T22:21:49.052Z,43.67
2023-02-09T22:24:27.445Z,43.58
2023-02-09T22:30:09.274Z,44.29
2023-02-09T22:32:54.931Z,45.19
2023-02-09T22:35:22.608Z,45.09
2023-02-09T22:38:00.259Z,45.29
2023-02-09T22:40:28.033Z,44.31
2023-02-09T22:42:55.065Z,44.82
2023-02-09T22:45:23.779Z,45.94
2023-02-09T22:47:52.447Z,45.62
2023-02-09T22:50:22.693Z,45.90
2023-02-09T22:52:49.446Z,45.02
2023-02-09T22:55:16.023Z,44.55
2023-02-09T22:57:43.135Z,44.85
2023-02-09T23:00:10.830Z,45.30
2023-02-09T23:02:42.023Z,45.25
2023-02-09T23:05:08.978Z,44.66
2023-02-09T23:07:35.893Z,45.60
2023-02-09T23:10:02.774Z,46.48
2023-02-09T23:12:38.848Z,45.82
2023-02-09T23:15:05.716Z,47.25
2023-02-09T23:17:33.056Z,46.01
2023-02-09T23:20:00.381Z,46.30
2023-02-09T23:22:28.672Z,45.71
2023-02-09T23:24:55.395Z,46.04
2023-02-09T23:27:22.560Z,47.90
2023-02-09T23:29:49.515Z,48.40
2023-02-09T23:32:17.272Z,47.93
2023-02-09T23:34:43.955Z,47.07
2023-02-09T23:37:18.675Z,46.81
2023-02-09T23:39:54.370Z,48.77
2023-02-09T23:42:22.783Z,49.23
2023-02-09T23:44:49.802Z,50.79
2023-02-09T23:47:18.196Z,49.64
2023-02-09T23:49:45.102Z,50.43
2023-02-09T23:52:11.711Z,51.25
2023-02-09T23:54:38.672Z,53.10
2023-02-09T23:57:05.637Z,53.85
2023-02-09T23:59:36.348Z,52.22
